createdAt,value
2022-12-18T00:02:16.175Z,81.40
2022-12-18T00:04:43.031Z,81.71
2022-12-18T00:07:10.206Z,81.80
2022-12-18T00:09:39.468Z,81.86
2022-12-18T00:14:45.535Z,80.90
2022-12-18T00:17:12.553Z,81.09
2022-12-18T00:19:39.332Z,81.24
2022-12-18T00:22:07.462Z,80.97
2022-12-18T00:24:34.287Z,81.14
2022-12-18T00:27:01.024Z,80.59
2022-12-18T00:29:27.952Z,79.48
2022-12-18T00:31:54.949Z,79.80
2022-12-18T00:34:21.765Z,79.34
2022-12-18T00:36:49.255Z,79.09
2022-12-18T00:39:16.086Z,79.01
2022-12-18T00:42:01.796Z,79.35
2022-12-18T00:44:28.595Z,78.23
2022-12-18T00:46:55.350Z,79.48
2022-12-18T00:49:22.474Z,79.15
2022-12-18T00:51:49.625Z,79.48
2022-12-18T00:54:17.573Z,77.99
2022-12-18T00:56:49.011Z,78.92
2022-12-18T00:59:17.911Z,79.66
2022-12-18T01:01:45.943Z,79.76
2022-12-18T01:04:13.235Z,79.40
2022-12-18T01:06:40.015Z,78.65
2022-12-18T01:09:07.024Z,77.44
2022-12-18T01:11:33.974Z,79.37
2022-12-18T01:14:00.755Z,79.68
2022-12-18T01:16:28.056Z,78.68
2022-12-18T01:18:56.060Z,78.90
2022-12-18T01:21:24.805Z,79.90
2022-12-18T01:23:56.377Z,79.82
2022-12-18T01:26:23.677Z,79.85
2022-12-18T01:28:50.503Z,78.84
2022-12-18T01:31:26.566Z,78.40
2022-12-18T01:33:54.278Z,78.80
2022-12-18T01:36:26.484Z,78.24
2022-12-18T01:38:54.505Z,78.61
2022-12-18T01:41:25.005Z,77.51
2022-12-18T01:43:58.107Z,77.55
2022-12-18T01:46:28.786Z,77.52
2022-12-18T01:49:00.389Z,77.79
2022-12-18T01:51:28.812Z,76.13
2022-12-18T01:53:55.815Z,78.00
2022-12-18T01:56:23.288Z,77.98
2022-12-18T01:59:07.149Z,77.96
2022-12-18T02:01:34.623Z,76.66
2022-12-18T02:04:22.113Z,77.59
2022-12-18T02:06:54.753Z,76.25
2022-12-18T02:09:30.414Z,77.03
2022-12-18T02:12:11.755Z,76.95
2022-12-18T02:14:56.614Z,77.45
2022-12-18T02:17:31.574Z,77.08
2022-12-18T02:20:01.061Z,76.94
2022-12-18T02:22:47.254Z,77.47
2022-12-18T02:25:21.395Z,77.18
2022-12-18T02:27:50.340Z,76.52
2022-12-18T02:30:18.482Z,76.10
2022-12-18T02:32:51.133Z,77.27
2022-12-18T02:35:25.073Z,75.99
2022-12-18T02:37:59.177Z,76.68
2022-12-18T02:40:29.432Z,76.31
2022-12-18T02:42:56.380Z,77.07
2022-12-18T02:45:23.196Z,77.36
2022-12-18T02:47:51.684Z,77.28
2022-12-18T02:50:27.495Z,77.10
2022-12-18T02:52:54.249Z,76.98
2022-12-18T02:55:33.783Z,77.19
2022-12-18T02:58:19.512Z,77.85
2022-12-18T03:01:08.545Z,77.61
2022-12-18T03:03:47.852Z,78.20
2022-12-18T03:06:33.172Z,78.54
2022-12-18T03:09:05.824Z,79.22
2022-12-18T03:11:58.024Z,78.90
2022-12-18T03:14:27.141Z,78.23
2022-12-18T03:17:00.039Z,77.49
2022-12-18T03:19:30.644Z,76.76
2022-12-18T03:21:59.988Z,76.61
2022-12-18T03:24:31.063Z,77.05
2022-12-18T03:27:03.778Z,77.26
2022-12-18T03:29:38.927Z,76.04
2022-12-18T03:32:31.912Z,76.82
2022-12-18T03:35:03.883Z,76.61
2022-12-18T03:37:34.272Z,76.12
2022-12-18T03:40:01.115Z,76.40
2022-12-18T03:42:41.462Z,76.47
2022-12-18T03:45:37.699Z,75.50
2022-12-18T03:48:09.962Z,76.16
2022-12-18T03:50:55.113Z,76.37
2022-12-18T03:53:34.928Z,77.03
2022-12-18T03:56:03.223Z,76.59
2022-12-18T03:58:33.028Z,75.94
2022-12-18T04:01:03.402Z,76.16
2022-12-18T04:03:32.974Z,75.85
2022-12-18T04:06:02.152Z,75.10
2022-12-18T04:08:30.152Z,76.55
2022-12-18T04:10:57.013Z,75.70
2022-12-18T04:13:30.860Z,77.24
2022-12-18T04:15:57.957Z,75.95
2022-12-18T04:18:24.881Z,75.88
2022-12-18T04:20:51.683Z,77.04
2022-12-18T04:23:18.513Z,77.04
2022-12-18T04:25:45.293Z,76.75
2022-12-18T04:28:12.113Z,77.24
2022-12-18T04:30:39.297Z,76.96
2022-12-18T04:33:12.880Z,76.70
2022-12-18T04:35:40.845Z,77.29
2022-12-18T04:38:09.516Z,77.79
2022-12-18T04:40:37.201Z,77.23
2022-12-18T04:43:05.001Z,76.75
2022-12-18T04:45:32.972Z,76.89
2022-12-18T04:48:00.688Z,77.41
2022-12-18T04:50:28.043Z,77.44
2022-12-18T04:52:54.903Z,78.43
2022-12-18T04:55:21.911Z,77.22
2022-12-18T04:57:48.772Z,77.13
2022-12-18T05:00:15.893Z,77.87
2022-12-18T05:02:42.842Z,77.80
2022-12-18T05:05:10.293Z,78.10
2022-12-18T05:07:37.115Z,78.37
2022-12-18T05:10:08.970Z,77.75
2022-12-18T05:12:57.315Z,77.96
2022-12-18T05:15:24.129Z,79.05
2022-12-18T05:17:50.904Z,78.48
2022-12-18T05:20:19.294Z,78.71
2022-12-18T05:22:46.233Z,78.84
2022-12-18T05:25:13.045Z,78.60
2022-12-18T05:27:39.960Z,77.62
2022-12-18T05:30:07.413Z,78.58
2022-12-18T05:32:34.273Z,78.60
2022-12-18T05:35:01.112Z,78.46
2022-12-18T05:37:27.933Z,77.83
2022-12-18T05:39:54.748Z,78.39
2022-12-18T05:42:21.562Z,79.28
2022-12-18T05:44:48.602Z,78.98
2022-12-18T05:47:15.433Z,78.67
2022-12-18T05:49:42.333Z,78.65
2022-12-18T05:52:09.252Z,78.61
2022-12-18T05:54:36.304Z,78.36
2022-12-18T05:57:03.221Z,78.18
2022-12-18T05:59:30.024Z,79.19
2022-12-18T06:01:57.094Z,79.50
2022-12-18T06:04:23.962Z,79.62
2022-12-18T06:06:50.713Z,79.31
2022-12-18T06:09:17.582Z,79.13
2022-12-18T06:11:44.464Z,79.17
2022-12-18T06:14:11.267Z,79.31
2022-12-18T06:16:38.195Z,79.00
2022-12-18T06:19:06.691Z,79.01
2022-12-18T06:21:33.768Z,79.60
2022-12-18T06:24:01.300Z,79.21
2022-12-18T06:26:28.745Z,79.59
2022-12-18T06:28:55.902Z,79.23
2022-12-18T06:31:22.798Z,79.23
2022-12-18T06:33:49.668Z,79.98
2022-12-18T06:36:17.727Z,80.45
2022-12-18T06:38:45.402Z,79.92
2022-12-18T06:41:22.638Z,79.24
2022-12-18T06:43:49.682Z,80.11
2022-12-18T06:46:16.566Z,80.69
2022-12-18T06:48:43.388Z,80.71
2022-12-18T06:51:10.214Z,80.62
2022-12-18T06:53:37.215Z,80.19
2022-12-18T06:56:09.914Z,80.33
2022-12-18T06:58:38.041Z,79.73
2022-12-18T07:01:07.284Z,79.80
2022-12-18T07:03:34.122Z,80.33
2022-12-18T07:06:01.014Z,79.91
2022-12-18T07:08:29.586Z,79.01
2022-12-18T07:10:56.647Z,79.13
2022-12-18T07:13:23.912Z,78.60
2022-12-18T07:15:50.841Z,79.05
2022-12-18T07:18:17.652Z,78.33
2022-12-18T07:20:45.352Z,77.09
2022-12-18T07:23:13.105Z,77.25
2022-12-18T07:25:40.598Z,76.84
2022-12-18T07:28:08.263Z,75.21
2022-12-18T07:30:39.495Z,74.48
2022-12-18T07:33:06.363Z,73.91
2022-12-18T07:35:39.059Z,72.99
2022-12-18T07:38:06.122Z,73.47
2022-12-18T07:40:32.912Z,73.94
2022-12-18T07:42:59.762Z,72.20
2022-12-18T07:45:26.643Z,71.89
2022-12-18T07:47:53.463Z,73.41
2022-12-18T07:50:20.295Z,72.88
2022-12-18T07:52:47.713Z,71.67
2022-12-18T07:55:14.633Z,72.21
2022-12-18T07:57:50.769Z,72.52
2022-12-18T08:00:18.994Z,72.39
2022-12-18T08:02:46.081Z,71.68
2022-12-18T08:05:13.095Z,70.58
2022-12-18T08:07:39.975Z,70.35
2022-12-18T08:10:07.703Z,69.68
2022-12-18T08:12:34.504Z,70.97
2022-12-18T08:15:01.951Z,70.96
2022-12-18T08:17:28.873Z,69.86
2022-12-18T08:19:55.635Z,71.52
2022-12-18T08:22:22.433Z,70.26
2022-12-18T08:24:49.232Z,69.15
2022-12-18T08:27:31.483Z,69.53
2022-12-18T08:29:58.902Z,68.33
2022-12-18T08:32:27.604Z,68.15
2022-12-18T08:34:54.865Z,67.39
2022-12-18T08:37:21.719Z,67.90
2022-12-18T08:39:48.508Z,66.15
2022-12-18T08:42:33.756Z,66.43
2022-12-18T08:45:00.615Z,65.09
2022-12-18T08:47:27.413Z,64.47
2022-12-18T08:49:54.315Z,65.47
2022-12-18T08:52:21.184Z,64.42
2022-12-18T08:54:48.024Z,63.81
2022-12-18T08:57:14.894Z,63.79
2022-12-18T08:59:41.674Z,59.54
2022-12-18T09:02:11.845Z,58.17
2022-12-18T09:04:39.008Z,55.65
2022-12-18T09:07:05.774Z,53.14
2022-12-18T09:09:32.644Z,50.54
2022-12-18T09:11:59.422Z,51.46
2022-12-18T09:14:26.174Z,50.67
2022-12-18T09:16:53.127Z,50.34
2022-12-18T09:19:19.912Z,50.12
2022-12-18T09:21:48.470Z,50.96
2022-12-18T09:24:16.522Z,50.29
2022-12-18T09:26:46.866Z,49.35
2022-12-18T09:29:15.634Z,49.26
2022-12-18T09:31:43.595Z,49.17
2022-12-18T09:34:10.390Z,50.03
2022-12-18T09:36:37.294Z,47.63
2022-12-18T09:39:08.251Z,48.82
2022-12-18T09:41:38.486Z,48.86
2022-12-18T09:44:24.562Z,52.34
2022-12-18T09:46:58.542Z,53.07
2022-12-18T09:49:30.775Z,52.80
2022-12-18T09:52:05.183Z,53.67
2022-12-18T09:54:45.450Z,57.79
2022-12-18T09:57:17.635Z,58.34
2022-12-18T09:59:51.795Z,60.38
2022-12-18T10:02:26.849Z,61.35
2022-12-18T10:05:18.307Z,61.49
2022-12-18T10:08:30.993Z,61.94
2022-12-18T10:11:05.075Z,61.28
2022-12-18T10:13:48.514Z,62.28
2022-12-18T10:16:37.083Z,63.02
2022-12-18T10:19:29.105Z,64.09
2022-12-18T10:22:13.813Z,63.41
2022-12-18T10:24:55.174Z,64.41
2022-12-18T10:27:28.003Z,63.98
2022-12-18T10:29:55.152Z,63.45
2022-12-18T10:32:26.002Z,62.16
2022-12-18T10:35:00.104Z,62.00
2022-12-18T10:37:30.048Z,63.18
2022-12-18T10:40:21.936Z,64.42
2022-12-18T10:43:05.641Z,64.71
2022-12-18T10:45:32.603Z,64.79
2022-12-18T10:48:00.102Z,65.30
2022-12-18T10:51:08.748Z,66.14
2022-12-18T10:53:31.285Z,67.56
2022-12-18T10:56:04.701Z,67.37
2022-12-18T10:58:35.734Z,65.86
2022-12-18T11:01:04.714Z,67.61
2022-12-18T11:03:39.323Z,67.31
2022-12-18T11:06:15.303Z,67.14
2022-12-18T11:08:45.099Z,68.96
2022-12-18T11:11:23.459Z,69.91
2022-12-18T11:14:05.326Z,68.66
2022-12-18T11:17:03.208Z,69.34
2022-12-18T11:19:38.814Z,69.83
2022-12-18T11:22:21.992Z,71.37
2022-12-18T11:25:30.018Z,69.11
2022-12-18T11:27:55.302Z,69.54
2022-12-18T11:30:36.453Z,69.68
2022-12-18T11:33:20.462Z,69.33
2022-12-18T11:35:54.832Z,69.06
2022-12-18T11:38:33.374Z,68.95
2022-12-18T11:41:18.722Z,68.77
2022-12-18T11:43:54.152Z,69.29
2022-12-18T11:46:43.097Z,68.77
2022-12-18T11:49:26.792Z,68.02
2022-12-18T11:52:04.721Z,68.39
2022-12-18T11:54:31.593Z,66.65
2022-12-18T11:57:30.589Z,66.80
2022-12-18T12:00:06.103Z,65.30
2022-12-18T12:03:03.492Z,65.81
2022-12-18T12:05:46.822Z,68.03
2022-12-18T12:08:32.939Z,64.64
2022-12-18T12:11:20.590Z,65.52
2022-12-18T12:14:08.561Z,63.87
2022-12-18T12:16:56.441Z,64.13
2022-12-18T12:19:47.241Z,65.70
2022-12-18T12:22:30.523Z,64.90
2022-12-18T12:25:15.504Z,64.63
2022-12-18T12:28:03.993Z,64.94
2022-12-18T12:31:01.486Z,64.76
2022-12-18T12:33:48.324Z,64.83
2022-12-18T12:36:38.233Z,65.11
2022-12-18T12:39:14.912Z,64.71
2022-12-18T12:42:04.882Z,65.48
2022-12-18T12:44:42.202Z,65.05
2022-12-18T12:47:20.442Z,64.44
2022-12-18T12:49:51.585Z,66.15
2022-12-18T12:52:38.801Z,65.20
2022-12-18T12:55:10.271Z,65.28
2022-12-18T12:57:50.083Z,65.40
2022-12-18T13:00:25.197Z,64.89
2022-12-18T13:03:35.206Z,64.83
2022-12-18T13:06:11.046Z,66.27
2022-12-18T13:09:00.164Z,65.76
2022-12-18T13:12:00.350Z,67.82
2022-12-18T13:14:35.012Z,66.92
2022-12-18T13:17:30.437Z,67.12
2022-12-18T13:20:17.165Z,68.28
2022-12-18T13:22:49.475Z,68.20
2022-12-18T13:25:37.366Z,68.07
2022-12-18T13:28:13.724Z,67.52
2022-12-18T13:30:57.698Z,68.15
2022-12-18T13:33:25.041Z,68.83
2022-12-18T13:35:51.888Z,68.44
2022-12-18T13:38:38.174Z,67.90
2022-12-18T13:41:20.063Z,68.76
2022-12-18T13:43:49.483Z,68.28
2022-12-18T13:46:44.922Z,68.17
2022-12-18T13:49:14.497Z,68.47
2022-12-18T13:51:50.624Z,68.89
2022-12-18T13:54:37.266Z,69.08
2022-12-18T13:57:07.543Z,70.05
2022-12-18T13:59:38.153Z,70.29
2022-12-18T14:02:16.880Z,69.42
2022-12-18T14:04:47.663Z,69.45
2022-12-18T14:07:17.366Z,70.35
2022-12-18T14:09:52.278Z,69.25
2022-12-18T14:12:42.717Z,69.71
2022-12-18T14:15:32.819Z,69.02
2022-12-18T14:18:03.108Z,69.69
2022-12-18T14:20:33.693Z,69.08
2022-12-18T14:23:01.474Z,68.33
2022-12-18T14:25:30.941Z,69.51
2022-12-18T14:28:09.879Z,68.98
2022-12-18T14:30:39.439Z,69.77
2022-12-18T14:33:09.196Z,69.83
2022-12-18T14:35:39.224Z,70.18
2022-12-18T14:38:22.386Z,70.06
2022-12-18T14:40:56.094Z,69.53
2022-12-18T14:43:23.592Z,69.76
2022-12-18T14:45:51.576Z,69.89
2022-12-18T14:48:37.217Z,69.42
2022-12-18T14:51:24.512Z,69.49
2022-12-18T14:54:18.173Z,70.16
2022-12-18T14:56:52.293Z,70.25
2022-12-18T14:59:27.513Z,69.54
2022-12-18T15:02:04.077Z,69.13
2022-12-18T15:04:45.122Z,69.64
2022-12-18T15:07:23.308Z,70.25
2022-12-18T15:10:08.764Z,70.95
2022-12-18T15:12:50.052Z,70.13
2022-12-18T15:15:37.987Z,70.51
2022-12-18T15:18:24.496Z,71.67
2022-12-18T15:20:56.292Z,71.42
2022-12-18T15:23:45.019Z,71.09
2022-12-18T15:26:14.325Z,71.18
2022-12-18T15:29:04.367Z,70.54
2022-12-18T15:31:36.007Z,70.68
2022-12-18T15:34:21.825Z,70.89
2022-12-18T15:36:48.894Z,71.27
2022-12-18T15:39:15.776Z,71.10
2022-12-18T15:42:02.589Z,69.88
2022-12-18T15:44:30.744Z,72.96
2022-12-18T15:46:59.281Z,74.04
2022-12-18T15:49:26.460Z,75.72
2022-12-18T15:51:57.798Z,76.72
2022-12-18T15:54:43.290Z,76.65
2022-12-18T15:57:24.307Z,77.48
2022-12-18T15:59:53.995Z,77.31
2022-12-18T16:02:24.054Z,77.00
2022-12-18T16:04:55.233Z,77.58
2022-12-18T16:07:24.933Z,77.45
2022-12-18T16:09:53.134Z,77.41
2022-12-18T16:12:25.952Z,76.85
2022-12-18T16:14:52.868Z,77.88
2022-12-18T16:17:20.538Z,78.08
2022-12-18T16:19:47.420Z,77.94
2022-12-18T16:22:22.116Z,78.23
2022-12-18T16:24:49.468Z,77.58
2022-12-18T16:27:16.345Z,77.69
2022-12-18T16:29:43.862Z,78.02
2022-12-18T16:32:15.443Z,78.65
2022-12-18T16:34:43.311Z,79.45
2022-12-18T16:37:14.004Z,78.57
2022-12-18T16:39:42.788Z,78.35
2022-12-18T16:42:21.290Z,77.60
2022-12-18T16:44:50.126Z,78.16
2022-12-18T16:47:17.537Z,78.46
2022-12-18T16:49:51.901Z,78.88
2022-12-18T16:52:19.567Z,78.36
2022-12-18T16:54:47.947Z,77.83
2022-12-18T16:57:19.583Z,77.79
2022-12-18T16:59:48.382Z,78.61
2022-12-18T17:02:26.269Z,76.95
2022-12-18T17:04:58.267Z,76.19
2022-12-18T17:07:26.078Z,75.50
2022-12-18T17:09:54.376Z,76.23
2022-12-18T17:12:22.430Z,74.25
2022-12-18T17:14:51.446Z,71.87
2022-12-18T17:17:21.486Z,72.13
2022-12-18T17:19:50.988Z,71.05
2022-12-18T17:22:18.231Z,71.49
2022-12-18T17:24:46.114Z,70.97
2022-12-18T17:27:14.412Z,71.04
2022-12-18T17:29:47.393Z,71.49
2022-12-18T17:32:18.314Z,70.49
2022-12-18T17:34:46.301Z,69.68
2022-12-18T17:37:16.671Z,69.01
2022-12-18T17:39:43.659Z,69.34
2022-12-18T17:42:14.949Z,68.54
2022-12-18T17:44:43.102Z,67.91
2022-12-18T17:47:12.355Z,69.19
2022-12-18T17:49:42.122Z,68.89
2022-12-18T17:52:09.712Z,68.90
2022-12-18T17:54:44.516Z,69.53
2022-12-18T17:57:12.354Z,68.72
2022-12-18T17:59:39.358Z,68.42
2022-12-18T18:02:06.593Z,69.17
2022-12-18T18:04:33.957Z,68.70
2022-12-18T18:07:00.820Z,68.87
2022-12-18T18:09:27.782Z,69.73
2022-12-18T18:12:13.067Z,69.49
2022-12-18T18:14:40.415Z,68.89
2022-12-18T18:17:07.365Z,69.17
2022-12-18T18:19:34.443Z,69.41
2022-12-18T18:22:02.193Z,70.35
2022-12-18T18:24:30.205Z,69.60
2022-12-18T18:26:59.676Z,68.62
2022-12-18T18:29:29.039Z,68.59
2022-12-18T18:31:57.080Z,68.83
2022-12-18T18:34:26.792Z,68.62
2022-12-18T18:36:53.884Z,69.14
2022-12-18T18:39:21.279Z,68.74
2022-12-18T18:41:48.726Z,69.87
2022-12-18T18:44:17.375Z,69.24
2022-12-18T18:46:45.129Z,69.87
2022-12-18T18:49:13.831Z,68.53
2022-12-18T18:51:41.492Z,68.64
2022-12-18T18:54:09.172Z,68.59
2022-12-18T18:59:24.993Z,69.07
2022-12-18T19:01:59.206Z,69.39
2022-12-18T19:04:26.254Z,68.94
2022-12-18T19:06:53.115Z,69.57
2022-12-18T19:09:21.061Z,69.15
2022-12-18T19:12:06.454Z,69.18
2022-12-18T19:14:33.413Z,68.90
2022-12-18T19:17:00.512Z,69.08
2022-12-18T19:19:28.499Z,68.47
2022-12-18T19:21:55.452Z,69.71
2022-12-18T19:24:22.589Z,69.88
2022-12-18T19:26:49.661Z,68.80
2022-12-18T19:29:16.445Z,68.72
2022-12-18T19:31:43.413Z,68.89
2022-12-18T19:34:10.679Z,69.14
2022-12-18T19:36:40.198Z,69.84
2022-12-18T19:39:16.504Z,70.05
2022-12-18T19:41:44.313Z,68.82
2022-12-18T19:44:13.853Z,69.42
2022-12-18T19:46:42.526Z,69.70
2022-12-18T19:49:11.068Z,68.71
2022-12-18T19:51:38.360Z,70.00
2022-12-18T19:54:05.656Z,69.35
2022-12-18T19:56:35.149Z,67.61
2022-12-18T19:59:03.730Z,68.32
2022-12-18T20:01:30.755Z,68.65
2022-12-18T20:03:58.958Z,68.53
2022-12-18T20:06:48.822Z,68.92
2022-12-18T20:09:16.589Z,70.11
2022-12-18T20:11:43.485Z,67.71
2022-12-18T20:14:12.247Z,68.15
2022-12-18T20:16:39.468Z,69.64
2022-12-18T20:19:08.003Z,68.28
2022-12-18T20:21:36.138Z,68.95
2022-12-18T20:24:03.228Z,68.47
2022-12-18T20:26:30.135Z,68.65
2022-12-18T20:28:57.060Z,70.49
2022-12-18T20:31:24.570Z,70.60
2022-12-18T20:33:53.305Z,70.20
2022-12-18T20:36:25.840Z,69.85
2022-12-18T20:38:59.166Z,69.18
2022-12-18T20:41:33.507Z,69.28
2022-12-18T20:44:05.466Z,69.75
2022-12-18T20:46:34.414Z,69.02
2022-12-18T20:49:01.317Z,69.04
2022-12-18T20:51:29.293Z,68.77
2022-12-18T20:53:56.576Z,68.75
2022-12-18T20:56:23.685Z,68.76
2022-12-18T20:58:50.915Z,69.23
2022-12-18T21:01:24.050Z,68.30
2022-12-18T21:03:51.619Z,68.94
2022-12-18T21:06:20.514Z,68.69
2022-12-18T21:08:48.249Z,68.85
2022-12-18T21:11:34.897Z,68.26
2022-12-18T21:14:25.930Z,68.98
2022-12-18T21:16:56.971Z,68.35
2022-12-18T21:19:27.228Z,68.72
2022-12-18T21:21:55.859Z,69.22
2022-12-18T21:24:23.543Z,68.98
2022-12-18T21:26:50.653Z,69.02
2022-12-18T21:29:24.364Z,68.32
2022-12-18T21:31:54.001Z,68.57
2022-12-18T21:34:23.309Z,69.10
2022-12-18T21:36:50.324Z,67.83
2022-12-18T21:39:17.384Z,67.77
2022-12-18T21:42:06.020Z,67.04
2022-12-18T21:44:36.154Z,67.94
2022-12-18T21:47:22.070Z,67.25
2022-12-18T21:49:54.026Z,67.44
2022-12-18T21:52:31.378Z,67.92
2022-12-18T21:55:08.418Z,67.58
2022-12-18T21:57:37.458Z,68.76
2022-12-18T22:00:05.902Z,68.70
2022-12-18T22:02:32.830Z,67.94
2022-12-18T22:05:00.019Z,66.95
2022-12-18T22:07:29.100Z,67.14
2022-12-18T22:09:55.889Z,67.48
2022-12-18T22:12:43.186Z,68.24
2022-12-18T22:15:21.479Z,67.31
2022-12-18T22:17:54.137Z,67.86
2022-12-18T22:20:26.896Z,67.85
2022-12-18T22:22:53.753Z,66.96
2022-12-18T22:25:20.525Z,67.00
2022-12-18T22:28:07.309Z,68.65
2022-12-18T22:33:33.865Z,68.78
2022-12-18T22:36:07.796Z,67.27
2022-12-18T22:38:34.617Z,68.30
2022-12-18T22:41:01.498Z,68.76
2022-12-18T22:43:28.427Z,68.81
2022-12-18T22:45:55.491Z,68.66
2022-12-18T22:48:22.497Z,66.75
2022-12-18T22:50:50.166Z,67.00
2022-12-18T22:53:19.843Z,66.67
2022-12-18T22:55:46.657Z,66.50
2022-12-18T22:58:13.445Z,67.04
2022-12-18T23:00:40.822Z,67.99
2022-12-18T23:03:07.892Z,68.29
2022-12-18T23:05:34.744Z,69.40
2022-12-18T23:08:01.546Z,69.07
2022-12-18T23:10:28.627Z,67.78
2022-12-18T23:12:55.479Z,66.76
2022-12-18T23:15:27.657Z,67.05
2022-12-18T23:17:56.117Z,67.05
2022-12-18T23:20:23.017Z,67.59
2022-12-18T23:22:49.780Z,67.87
2022-12-18T23:25:16.705Z,67.19
2022-12-18T23:27:43.519Z,67.43
2022-12-18T23:30:10.957Z,67.94
2022-12-18T23:32:37.859Z,68.19
2022-12-18T23:35:05.217Z,68.81
2022-12-18T23:37:57.527Z,68.57
2022-12-18T23:40:20.778Z,69.19
2022-12-18T23:42:47.578Z,68.07
2022-12-18T23:45:18.115Z,67.51
2022-12-18T23:47:45.165Z,68.94
2022-12-18T23:50:14.757Z,69.69
2022-12-18T23:52:41.537Z,70.85
2022-12-18T23:55:08.788Z,70.29
2022-12-18T23:57:35.599Z,69.79
